createdAt,value
2019-06-13T00:00:19.053Z,20.01
2019-06-13T00:01:16.057Z,20.08
2019-06-13T00:02:16.019Z,20.01
2019-06-13T00:03:18.702Z,19.92
2019-06-13T00:04:16.024Z,19.92
2019-06-13T00:05:16.009Z,19.94
2019-06-13T00:06:15.999Z,19.95
2019-06-13T00:07:15.983Z,19.85
2019-06-13T00:08:15.975Z,19.90
2019-06-13T00:09:15.976Z,19.78
2019-06-13T00:10:18.553Z,19.90
2019-06-13T00:11:15.949Z,19.90
2019-06-13T00:12:15.953Z,19.86
2019-06-13T00:13:15.950Z,19.83
2019-06-13T00:14:18.547Z,19.82
2019-06-13T00:15:15.925Z,19.83
2019-06-13T00:16:15.905Z,19.86
2019-06-13T00:17:15.895Z,19.76
2019-06-13T00:18:15.881Z,19.75
2019-06-13T00:19:15.890Z,19.82
2019-06-13T00:20:15.875Z,19.76
2019-06-13T00:21:15.882Z,19.78
2019-06-13T00:22:17.706Z,19.78
2019-06-13T00:23:15.825Z,19.65
2019-06-13T00:24:15.808Z,19.75
2019-06-13T00:25:15.816Z,19.75
2019-06-13T00:26:15.811Z,19.72
2019-06-13T00:27:15.803Z,19.72
2019-06-13T00:28:15.830Z,19.71
2019-06-13T00:29:15.774Z,19.67
2019-06-13T00:30:15.777Z,19.72
2019-06-13T00:31:15.750Z,19.75
2019-06-13T00:32:15.754Z,19.71
2019-06-13T00:33:15.741Z,19.72
2019-06-13T00:34:15.744Z,19.67
2019-06-13T00:35:15.739Z,19.65
2019-06-13T00:36:15.700Z,19.64
2019-06-13T00:37:15.691Z,19.67
2019-06-13T00:38:15.685Z,19.62
2019-06-13T00:39:15.691Z,19.62
2019-06-13T00:40:15.661Z,19.65
2019-06-13T00:41:15.661Z,19.67
2019-06-13T00:42:15.640Z,19.64
2019-06-13T00:43:15.639Z,19.61
2019-06-13T00:44:15.641Z,19.60
2019-06-13T00:45:15.620Z,19.53
2019-06-13T00:46:15.613Z,19.50
2019-06-13T00:47:15.586Z,19.53
2019-06-13T00:48:15.598Z,19.55
2019-06-13T00:49:15.593Z,19.43
2019-06-13T00:50:15.575Z,19.53
2019-06-13T00:51:15.566Z,19.53
2019-06-13T00:52:15.565Z,19.50
2019-06-13T00:53:15.558Z,19.47
2019-06-13T00:54:15.537Z,19.53
2019-06-13T00:55:15.547Z,19.55
2019-06-13T00:56:15.509Z,19.55
2019-06-13T00:57:15.519Z,19.62
2019-06-13T00:58:15.482Z,19.65
2019-06-13T00:59:15.492Z,19.58
2019-06-13T01:00:15.471Z,19.68
2019-06-13T01:01:15.470Z,19.65
2019-06-13T01:02:15.456Z,19.65
2019-06-13T01:03:15.436Z,19.75
2019-06-13T01:04:15.430Z,19.68
2019-06-13T01:05:15.407Z,19.68
2019-06-13T01:06:22.237Z,19.65
2019-06-13T01:07:15.406Z,19.65
2019-06-13T01:08:15.382Z,19.67
2019-06-13T01:09:15.418Z,19.65
2019-06-13T01:10:15.463Z,19.62
2019-06-13T01:11:15.341Z,19.72
2019-06-13T01:12:15.341Z,19.67
2019-06-13T01:13:15.357Z,19.72
2019-06-13T01:14:15.318Z,19.76
2019-06-13T01:15:15.334Z,19.70
2019-06-13T01:16:15.323Z,19.79
2019-06-13T01:17:15.311Z,19.82
2019-06-13T01:18:15.291Z,19.82
2019-06-13T01:19:15.298Z,19.82
2019-06-13T01:20:15.310Z,19.89
2019-06-13T01:21:15.260Z,19.80
2019-06-13T01:22:15.249Z,19.76
2019-06-13T01:23:15.241Z,19.67
2019-06-13T01:24:15.256Z,19.76
2019-06-13T01:25:15.225Z,19.80
2019-06-13T01:26:15.228Z,19.76
2019-06-13T01:27:15.198Z,19.70
2019-06-13T01:28:15.195Z,19.80
2019-06-13T01:29:15.200Z,19.76
2019-06-13T01:30:15.175Z,19.70
2019-06-13T01:31:15.187Z,19.64
2019-06-13T01:32:15.174Z,19.62
2019-06-13T01:33:15.164Z,19.78
2019-06-13T01:34:15.148Z,19.67
2019-06-13T01:35:15.144Z,19.70
2019-06-13T01:36:15.104Z,19.72
2019-06-13T01:37:15.097Z,19.79
2019-06-13T01:38:15.099Z,19.64
2019-06-13T01:39:15.123Z,19.62
2019-06-13T01:40:15.096Z,19.67
2019-06-13T01:41:15.053Z,19.55
2019-06-13T01:42:15.051Z,19.53
2019-06-13T01:43:15.072Z,19.53
2019-06-13T01:44:15.044Z,19.49
2019-06-13T01:45:15.073Z,19.47
2019-06-13T01:46:15.032Z,19.50
2019-06-13T01:47:15.001Z,19.52
2019-06-13T01:48:23.050Z,19.40
2019-06-13T01:49:14.989Z,19.47
2019-06-13T01:50:14.972Z,19.53
2019-06-13T01:51:14.956Z,19.52
2019-06-13T01:52:14.950Z,19.67
2019-06-13T01:53:14.948Z,19.67
2019-06-13T01:54:14.932Z,19.65
2019-06-13T01:55:14.937Z,19.58
2019-06-13T01:56:14.911Z,19.57
2019-06-13T01:57:14.922Z,19.50
2019-06-13T01:58:14.899Z,19.35
2019-06-13T01:59:14.898Z,19.34
2019-06-13T02:00:28.871Z,19.35
2019-06-13T02:01:14.871Z,19.40
2019-06-13T02:02:14.856Z,19.42
2019-06-13T02:03:14.855Z,19.39
2019-06-13T02:04:14.842Z,19.34
2019-06-13T02:05:14.833Z,19.34
2019-06-13T02:06:14.816Z,19.34
2019-06-13T02:07:14.812Z,19.32
2019-06-13T02:08:14.793Z,19.39
2019-06-13T02:09:14.798Z,19.28
2019-06-13T02:10:14.764Z,19.39
2019-06-13T02:11:14.783Z,19.31
2019-06-13T02:12:14.768Z,19.32
2019-06-13T02:13:14.748Z,19.34
2019-06-13T02:14:14.768Z,19.38
2019-06-13T02:15:14.736Z,19.39
2019-06-13T02:16:14.716Z,19.47
2019-06-13T02:17:14.723Z,19.50
2019-06-13T02:18:14.709Z,19.49
2019-06-13T02:19:14.676Z,19.50
2019-06-13T02:20:14.671Z,19.47
2019-06-13T02:21:14.673Z,19.43
2019-06-13T02:22:14.662Z,19.52
2019-06-13T02:23:14.666Z,19.38
2019-06-13T02:24:14.629Z,19.45
2019-06-13T02:25:14.630Z,19.34
2019-06-13T02:26:14.628Z,19.34
2019-06-13T02:27:14.629Z,19.38
2019-06-13T02:28:14.595Z,19.25
2019-06-13T02:29:14.579Z,19.16
2019-06-13T02:30:14.564Z,19.15
2019-06-13T02:31:14.564Z,19.05
2019-06-13T02:32:21.034Z,19.07
2019-06-13T02:33:14.539Z,19.12
2019-06-13T02:34:14.542Z,19.16
2019-06-13T02:35:14.539Z,19.09
2019-06-13T02:36:14.517Z,19.05
2019-06-13T02:37:28.330Z,19.05
2019-06-13T02:38:14.497Z,19.13
2019-06-13T02:39:14.497Z,19.13
2019-06-13T02:40:14.497Z,19.10
2019-06-13T02:41:14.452Z,19.02
2019-06-13T02:42:14.470Z,19.05
2019-06-13T02:43:14.487Z,19.10
2019-06-13T02:44:14.449Z,19.12
2019-06-13T02:45:14.437Z,19.05
2019-06-13T02:46:14.412Z,19.05
2019-06-13T02:47:14.394Z,18.99
2019-06-13T02:48:14.403Z,18.97
2019-06-13T02:49:14.431Z,18.99
2019-06-13T02:50:14.379Z,19.01
2019-06-13T02:51:14.349Z,18.94
2019-06-13T02:52:14.364Z,18.93
2019-06-13T02:53:14.355Z,19.02
2019-06-13T02:54:14.321Z,18.83
2019-06-13T02:55:14.336Z,18.86
2019-06-13T02:56:16.582Z,18.87
2019-06-13T02:57:14.298Z,18.78
2019-06-13T02:58:14.301Z,18.75
2019-06-13T02:59:14.270Z,18.66
2019-06-13T03:00:14.281Z,18.65
2019-06-13T03:01:14.251Z,18.64
2019-06-13T03:02:14.383Z,18.64
2019-06-13T03:03:14.237Z,18.68
2019-06-13T03:04:14.276Z,18.51
2019-06-13T03:05:14.235Z,18.54
2019-06-13T03:06:14.209Z,18.39
2019-06-13T03:07:14.215Z,18.39
2019-06-13T03:08:14.201Z,18.54
2019-06-13T03:09:14.185Z,18.53
2019-06-13T03:10:14.183Z,18.60
2019-06-13T03:11:14.171Z,18.62
2019-06-13T03:12:14.305Z,18.49
2019-06-13T03:13:14.131Z,18.53
2019-06-13T03:14:14.104Z,18.50
2019-06-13T03:15:14.120Z,18.50
2019-06-13T03:16:14.108Z,18.38
2019-06-13T03:17:14.246Z,18.41
2019-06-13T03:18:14.076Z,18.38
2019-06-13T03:19:14.065Z,18.42
2019-06-13T03:20:14.071Z,18.44
2019-06-13T03:21:14.057Z,18.39
2019-06-13T03:22:14.027Z,18.42
2019-06-13T03:23:14.041Z,18.47
2019-06-13T03:24:14.010Z,18.47
2019-06-13T03:25:14.008Z,18.39
2019-06-13T03:26:13.996Z,18.32
2019-06-13T03:27:13.986Z,18.44
2019-06-13T03:28:14.066Z,18.35
2019-06-13T03:29:14.010Z,18.32
2019-06-13T03:30:21.576Z,18.39
2019-06-13T03:31:13.934Z,18.36
2019-06-13T03:32:13.929Z,18.36
2019-06-13T03:33:13.923Z,18.36
2019-06-13T03:34:13.897Z,18.41
2019-06-13T03:35:13.906Z,18.36
2019-06-13T03:36:13.924Z,18.36
2019-06-13T03:37:13.878Z,18.34
2019-06-13T03:38:13.847Z,18.34
2019-06-13T03:39:13.862Z,18.34
2019-06-13T03:40:22.796Z,18.38
2019-06-13T03:41:13.831Z,18.41
2019-06-13T03:42:13.833Z,18.32
2019-06-13T03:43:13.791Z,18.23
2019-06-13T03:44:13.776Z,18.28
2019-06-13T03:45:13.770Z,18.25
2019-06-13T03:46:13.758Z,18.35
2019-06-13T03:47:13.804Z,18.29
2019-06-13T03:48:13.748Z,18.35
2019-06-13T03:49:13.743Z,18.35
2019-06-13T03:50:13.725Z,18.21
2019-06-13T03:51:13.817Z,18.29
2019-06-13T03:52:13.706Z,18.23
2019-06-13T03:53:13.726Z,18.29
2019-06-13T03:54:13.674Z,18.23
2019-06-13T03:55:13.717Z,18.20
2019-06-13T03:56:13.672Z,18.19
2019-06-13T03:57:13.666Z,18.13
2019-06-13T03:58:13.648Z,18.20
2019-06-13T03:59:13.623Z,18.19
2019-06-13T04:00:13.617Z,18.29
2019-06-13T04:01:16.331Z,18.28
2019-06-13T04:02:13.596Z,18.34
2019-06-13T04:03:13.595Z,18.32
2019-06-13T04:04:13.568Z,18.20
2019-06-13T04:05:13.557Z,18.17
2019-06-13T04:06:13.552Z,18.23
2019-06-13T04:07:13.555Z,18.21
2019-06-13T04:08:20.116Z,18.32
2019-06-13T04:09:13.518Z,18.23
2019-06-13T04:10:13.503Z,18.26
2019-06-13T04:11:13.520Z,18.35
2019-06-13T04:12:13.497Z,18.32
2019-06-13T04:13:13.472Z,18.31
2019-06-13T04:14:13.460Z,18.32
2019-06-13T04:15:13.451Z,18.39
2019-06-13T04:16:13.444Z,18.39
2019-06-13T04:17:13.436Z,18.38
2019-06-13T04:18:13.419Z,18.36
2019-06-13T04:19:13.419Z,18.35
2019-06-13T04:20:13.404Z,18.34
2019-06-13T04:21:13.394Z,18.38
2019-06-13T04:22:13.388Z,18.44
2019-06-13T04:23:13.369Z,18.38
2019-06-13T04:24:13.373Z,18.38
2019-06-13T04:25:13.344Z,18.46
2019-06-13T04:26:13.334Z,18.42
2019-06-13T04:27:13.317Z,18.44
2019-06-13T04:28:13.317Z,18.38
2019-06-13T04:29:13.310Z,18.34
2019-06-13T04:30:46.101Z,18.36
2019-06-13T04:31:13.283Z,18.23
2019-06-13T04:32:13.278Z,18.32
2019-06-13T04:33:13.267Z,18.36
2019-06-13T04:34:13.245Z,18.32
2019-06-13T04:35:13.245Z,18.29
2019-06-13T04:36:13.220Z,18.29
2019-06-13T04:37:13.225Z,18.35
2019-06-13T04:38:13.208Z,18.35
2019-06-13T04:39:13.186Z,18.38
2019-06-13T04:40:13.189Z,18.31
2019-06-13T04:41:13.218Z,18.29
2019-06-13T04:42:13.149Z,18.42
2019-06-13T04:43:13.161Z,18.32
2019-06-13T04:44:13.149Z,18.35
2019-06-13T04:45:13.123Z,18.34
2019-06-13T04:46:13.128Z,18.32
2019-06-13T04:47:13.118Z,18.35
2019-06-13T04:48:13.111Z,18.29
2019-06-13T04:49:13.102Z,18.35
2019-06-13T04:50:13.057Z,18.25
2019-06-13T04:51:13.072Z,18.19
2019-06-13T04:52:13.039Z,18.14
2019-06-13T04:53:13.029Z,18.05
2019-06-13T04:54:13.040Z,18.02
2019-06-13T04:55:13.039Z,17.89
2019-06-13T04:56:13.011Z,17.96
2019-06-13T04:57:12.998Z,17.91
2019-06-13T04:58:12.987Z,18.04
2019-06-13T04:59:12.977Z,18.05
2019-06-13T05:00:14.736Z,18.07
2019-06-13T05:01:12.985Z,18.04
2019-06-13T05:02:12.956Z,18.10
2019-06-13T05:03:12.945Z,18.16
2019-06-13T05:04:12.915Z,18.14
2019-06-13T05:05:12.937Z,18.09
2019-06-13T05:06:12.897Z,18.04
2019-06-13T05:07:12.937Z,17.98
2019-06-13T05:08:12.894Z,18.04
2019-06-13T05:09:12.853Z,18.01
2019-06-13T05:10:13.720Z,17.99
2019-06-13T05:11:12.855Z,18.02
2019-06-13T05:12:12.826Z,18.05
2019-06-13T05:13:12.815Z,18.09
2019-06-13T05:14:12.806Z,18.17
2019-06-13T05:15:12.792Z,18.16
2019-06-13T05:16:12.813Z,18.17
2019-06-13T05:17:12.826Z,18.14
2019-06-13T05:18:12.751Z,18.16
2019-06-13T05:19:12.755Z,18.16
2019-06-13T05:20:12.748Z,18.11
2019-06-13T05:21:12.748Z,18.07
2019-06-13T05:22:12.716Z,18.16
2019-06-13T05:23:12.697Z,18.11
2019-06-13T05:24:12.713Z,18.05
2019-06-13T05:25:12.695Z,18.04
2019-06-13T05:26:12.672Z,18.04
2019-06-13T05:27:12.662Z,18.10
2019-06-13T05:28:12.669Z,18.13
2019-06-13T05:29:12.665Z,18.13
2019-06-13T05:30:15.004Z,18.11
2019-06-13T05:31:12.625Z,18.13
2019-06-13T05:32:12.627Z,18.10
2019-06-13T05:33:14.090Z,18.04
2019-06-13T05:34:12.597Z,18.01
2019-06-13T05:35:12.579Z,17.96
2019-06-13T05:36:12.575Z,17.92
2019-06-13T05:37:12.571Z,17.94
2019-06-13T05:38:12.527Z,17.87
2019-06-13T05:39:16.387Z,17.94
2019-06-13T05:40:12.537Z,17.81
2019-06-13T05:41:12.521Z,17.87
2019-06-13T05:42:12.486Z,17.83
2019-06-13T05:43:12.511Z,17.94
2019-06-13T05:44:12.464Z,17.94
2019-06-13T05:45:12.467Z,17.83
2019-06-13T05:46:12.466Z,17.89
2019-06-13T05:47:12.438Z,17.87
2019-06-13T05:48:12.439Z,17.89
2019-06-13T05:49:12.419Z,17.96
2019-06-13T05:50:12.418Z,17.87
2019-06-13T05:51:12.401Z,17.92
2019-06-13T05:52:12.392Z,17.98
2019-06-13T05:53:12.393Z,17.99
2019-06-13T05:54:12.378Z,17.96
2019-06-13T05:55:12.342Z,18.01
2019-06-13T05:56:12.332Z,17.98
2019-06-13T05:57:12.320Z,17.98
2019-06-13T05:58:12.326Z,17.94
2019-06-13T05:59:12.327Z,17.94
2019-06-13T06:00:12.302Z,17.87
2019-06-13T06:01:12.291Z,17.92
2019-06-13T06:02:12.283Z,17.87
2019-06-13T06:03:12.276Z,17.91
2019-06-13T06:04:12.269Z,18.01
2019-06-13T06:05:12.254Z,17.84
2019-06-13T06:06:12.240Z,17.91
2019-06-13T06:07:12.207Z,17.92
2019-06-13T06:08:12.231Z,17.94
2019-06-13T06:09:30.753Z,17.84
2019-06-13T06:10:12.195Z,17.86
2019-06-13T06:11:13.391Z,17.86
2019-06-13T06:12:12.173Z,17.77
2019-06-13T06:13:12.169Z,17.80
2019-06-13T06:14:12.123Z,17.76
2019-06-13T06:15:12.140Z,17.84
2019-06-13T06:16:12.111Z,17.86
2019-06-13T06:17:12.112Z,17.80
2019-06-13T06:18:12.107Z,17.81
2019-06-13T06:19:12.081Z,17.92
2019-06-13T06:20:12.095Z,17.84
2019-06-13T06:21:12.062Z,17.95
2019-06-13T06:22:12.050Z,17.87
2019-06-13T06:23:17.132Z,17.84
2019-06-13T06:24:15.046Z,17.77
2019-06-13T06:25:12.924Z,17.71
2019-06-13T06:26:11.999Z,17.66
2019-06-13T06:27:11.998Z,17.76
2019-06-13T06:28:11.986Z,17.55
2019-06-13T06:29:11.987Z,17.58
2019-06-13T06:30:13.658Z,17.66
2019-06-13T06:31:11.958Z,17.66
2019-06-13T06:32:11.944Z,17.73
2019-06-13T06:33:11.925Z,17.70
2019-06-13T06:34:11.924Z,17.77
2019-06-13T06:35:11.914Z,17.68
2019-06-13T06:36:11.882Z,17.83
2019-06-13T06:37:11.870Z,17.86
2019-06-13T06:38:11.895Z,17.71
2019-06-13T06:39:11.850Z,17.87
2019-06-13T06:40:11.850Z,17.73
2019-06-13T06:41:11.837Z,17.76
2019-06-13T06:42:11.843Z,17.79
2019-06-13T06:43:11.810Z,17.71
2019-06-13T06:44:11.799Z,17.70
2019-06-13T06:45:11.796Z,17.70
2019-06-13T06:46:11.780Z,17.66
2019-06-13T06:47:11.778Z,17.58
2019-06-13T06:48:11.776Z,17.70
2019-06-13T06:49:11.729Z,17.74
2019-06-13T06:50:11.739Z,17.62
2019-06-13T06:51:11.728Z,17.57
2019-06-13T06:52:11.713Z,17.62
2019-06-13T06:53:11.714Z,17.58
2019-06-13T06:54:11.715Z,17.57
2019-06-13T06:55:11.677Z,17.60
2019-06-13T06:56:11.688Z,17.62
2019-06-13T06:57:11.643Z,17.68
2019-06-13T06:58:11.632Z,17.63
2019-06-13T06:59:11.633Z,17.71
2019-06-13T07:00:12.051Z,17.63
2019-06-13T07:01:11.619Z,17.57
2019-06-13T07:02:11.608Z,17.62
2019-06-13T07:03:11.606Z,17.65
2019-06-13T07:04:14.382Z,17.68
2019-06-13T07:05:11.558Z,17.65
2019-06-13T07:06:11.567Z,17.62
2019-06-13T07:07:11.596Z,17.55
2019-06-13T07:08:11.540Z,17.66
2019-06-13T07:09:11.517Z,17.63
2019-06-13T07:10:17.481Z,17.62
2019-06-13T07:11:11.497Z,17.70
2019-06-13T07:12:11.488Z,17.55
2019-06-13T07:13:11.485Z,17.70
2019-06-13T07:14:20.626Z,17.71
2019-06-13T07:15:11.436Z,17.77
2019-06-13T07:16:11.447Z,17.74
2019-06-13T07:17:11.422Z,17.63
2019-06-13T07:18:11.404Z,17.68
2019-06-13T07:19:11.406Z,17.77
2019-06-13T07:20:11.398Z,17.70
2019-06-13T07:21:11.407Z,17.57
2019-06-13T07:22:11.388Z,17.66
2019-06-13T07:23:11.374Z,17.62
2019-06-13T07:24:11.358Z,17.49
2019-06-13T07:25:11.351Z,17.51
2019-06-13T07:26:11.336Z,17.45
2019-06-13T07:27:11.581Z,17.47
2019-06-13T07:28:11.286Z,17.38
2019-06-13T07:29:11.301Z,17.40
2019-06-13T07:30:14.956Z,17.46
2019-06-13T07:31:11.279Z,17.49
2019-06-13T07:32:11.278Z,17.53
2019-06-13T07:33:11.246Z,17.49
2019-06-13T07:34:11.506Z,17.51
2019-06-13T07:35:11.223Z,17.46
2019-06-13T07:36:11.211Z,17.51
2019-06-13T07:37:11.227Z,17.53
2019-06-13T07:38:11.195Z,17.49
2019-06-13T07:39:11.183Z,17.47
2019-06-13T07:40:27.767Z,17.55
2019-06-13T07:41:11.164Z,17.42
2019-06-13T07:42:11.154Z,17.39
2019-06-13T07:43:11.142Z,17.39
2019-06-13T07:44:14.339Z,17.42
2019-06-13T07:45:11.126Z,17.42
2019-06-13T07:46:11.084Z,17.38
2019-06-13T07:47:11.108Z,17.30
2019-06-13T07:48:12.713Z,17.35
2019-06-13T07:49:11.060Z,17.42
2019-06-13T07:50:11.056Z,17.35
2019-06-13T07:51:11.046Z,17.33
2019-06-13T07:52:11.032Z,17.43
2019-06-13T07:53:11.048Z,17.28
2019-06-13T07:54:11.005Z,17.24
2019-06-13T07:55:12.035Z,17.15
2019-06-13T07:56:10.996Z,17.17
2019-06-13T07:57:10.964Z,17.21
2019-06-13T07:58:10.968Z,17.28
2019-06-13T07:59:11.077Z,17.25
2019-06-13T08:00:10.944Z,17.35
2019-06-13T08:01:11.706Z,17.25
2019-06-13T08:02:10.954Z,17.32
2019-06-13T08:03:10.932Z,17.35
2019-06-13T08:04:11.258Z,17.35
2019-06-13T08:05:10.881Z,17.35
2019-06-13T08:06:10.867Z,17.32
2019-06-13T08:07:10.852Z,17.25
2019-06-13T08:08:10.875Z,17.28
2019-06-13T08:09:10.820Z,17.30
2019-06-13T08:10:12.401Z,17.22
2019-06-13T08:11:10.810Z,17.15
2019-06-13T08:12:10.811Z,17.17
2019-06-13T08:13:10.872Z,17.20
2019-06-13T08:14:10.781Z,17.21
2019-06-13T08:15:10.808Z,17.17
2019-06-13T08:16:26.032Z,17.25
2019-06-13T08:17:11.048Z,17.30
2019-06-13T08:18:10.711Z,17.28
2019-06-13T08:19:10.721Z,17.15
2019-06-13T08:20:10.715Z,17.12
2019-06-13T08:21:10.699Z,17.18
2019-06-13T08:22:10.844Z,17.28
2019-06-13T08:23:18.074Z,17.28
2019-06-13T08:24:10.653Z,17.33
2019-06-13T08:25:10.641Z,17.30
2019-06-13T08:26:13.331Z,17.28
2019-06-13T08:27:10.619Z,17.33
2019-06-13T08:28:10.632Z,17.30
2019-06-13T08:29:10.600Z,17.30
2019-06-13T08:30:10.648Z,17.32
2019-06-13T08:31:10.584Z,17.33
2019-06-13T08:32:10.557Z,17.22
2019-06-13T08:33:10.571Z,17.15
2019-06-13T08:34:10.538Z,17.27
2019-06-13T08:35:10.541Z,17.20
2019-06-13T08:36:10.503Z,17.15
2019-06-13T08:37:12.316Z,17.20
2019-06-13T08:38:10.486Z,17.20
2019-06-13T08:39:10.474Z,17.22
2019-06-13T08:40:10.490Z,17.20
2019-06-13T08:41:19.146Z,17.21
2019-06-13T08:42:10.435Z,17.15
2019-06-13T08:43:15.285Z,17.21
2019-06-13T08:44:11.172Z,17.17
2019-06-13T08:45:10.409Z,17.18
2019-06-13T08:46:10.724Z,17.17
2019-06-13T08:47:10.833Z,17.14
2019-06-13T08:48:11.031Z,17.21
2019-06-13T08:49:16.204Z,17.20
2019-06-13T08:50:10.347Z,17.17
2019-06-13T08:51:10.555Z,17.15
2019-06-13T08:52:10.341Z,17.15
2019-06-13T08:53:10.614Z,17.21
2019-06-13T08:54:10.401Z,17.25
2019-06-13T08:55:10.780Z,17.27
2019-06-13T08:56:10.316Z,17.21
2019-06-13T08:57:10.378Z,17.27
2019-06-13T08:58:10.348Z,17.30
2019-06-13T08:59:10.528Z,17.25
2019-06-13T09:00:10.249Z,17.32
2019-06-13T09:01:10.815Z,17.28
2019-06-13T09:02:11.076Z,17.27
2019-06-13T09:03:10.397Z,17.27
2019-06-13T09:04:10.923Z,17.30
2019-06-13T09:05:11.216Z,17.35
2019-06-13T09:06:13.948Z,17.30
2019-06-13T09:07:10.165Z,17.22
2019-06-13T09:08:15.881Z,17.30
2019-06-13T09:09:10.184Z,17.33
2019-06-13T09:10:10.640Z,17.33
2019-06-13T09:11:10.107Z,17.22
2019-06-13T09:12:10.498Z,17.28
2019-06-13T09:13:10.080Z,17.27
2019-06-13T09:14:11.363Z,17.10
2019-06-13T09:15:10.061Z,17.28
2019-06-13T09:16:10.391Z,17.33
2019-06-13T09:17:12.584Z,17.24
2019-06-13T09:18:10.012Z,17.21
2019-06-13T09:19:10.406Z,17.18
2019-06-13T09:20:10.425Z,17.14
2019-06-13T09:21:10.998Z,17.30
2019-06-13T09:22:10.355Z,17.15
2019-06-13T09:23:11.225Z,17.22
2019-06-13T09:24:10.270Z,17.21
2019-06-13T09:25:12.090Z,17.30
2019-06-13T09:26:10.493Z,17.28
2019-06-13T09:27:09.947Z,17.17
2019-06-13T09:28:09.978Z,17.25
2019-06-13T09:29:10.398Z,17.20
2019-06-13T09:30:09.929Z,17.18
2019-06-13T09:31:10.775Z,17.27
2019-06-13T09:32:10.383Z,17.18
2019-06-13T09:33:18.891Z,17.24
2019-06-13T09:34:14.179Z,17.15
2019-06-13T09:35:10.194Z,17.27
2019-06-13T09:36:11.148Z,17.21
2019-06-13T09:37:10.012Z,17.20
2019-06-13T09:38:10.367Z,17.12
2019-06-13T09:39:20.130Z,17.05
2019-06-13T09:40:10.671Z,17.14
2019-06-13T09:41:11.350Z,17.15
2019-06-13T09:42:18.573Z,17.17
2019-06-13T09:43:10.490Z,17.24
2019-06-13T09:44:11.294Z,17.25
2019-06-13T09:45:11.341Z,17.17
2019-06-13T09:46:10.291Z,17.24
2019-06-13T09:47:10.854Z,17.22
2019-06-13T09:48:11.581Z,17.17
2019-06-13T09:49:10.733Z,17.32
2019-06-13T09:50:11.274Z,17.30
2019-06-13T09:51:10.006Z,17.18
2019-06-13T09:52:10.176Z,17.14
2019-06-13T09:53:10.828Z,17.17
2019-06-13T09:54:10.707Z,17.17
2019-06-13T09:55:14.861Z,17.15
2019-06-13T09:56:10.597Z,17.22
2019-06-13T09:57:11.153Z,17.21
2019-06-13T09:58:09.611Z,17.20
2019-06-13T09:59:10.584Z,17.22
2019-06-13T10:00:17.407Z,17.17
2019-06-13T10:01:09.523Z,17.15
2019-06-13T10:02:09.528Z,17.30
2019-06-13T10:03:09.945Z,17.22
2019-06-13T10:04:09.487Z,17.32
2019-06-13T10:05:11.107Z,17.32
2019-06-13T10:06:18.676Z,17.27
2019-06-13T10:07:09.787Z,17.30
2019-06-13T10:08:09.746Z,17.33
2019-06-13T10:09:10.805Z,17.32
2019-06-13T10:10:10.566Z,17.33
2019-06-13T10:11:09.419Z,17.36
2019-06-13T10:12:30.855Z,17.39
2019-06-13T10:13:10.199Z,17.40
2019-06-13T10:14:10.328Z,17.38
2019-06-13T10:15:10.879Z,17.40
2019-06-13T10:16:10.879Z,17.42
2019-06-13T10:17:11.268Z,17.32
2019-06-13T10:18:11.388Z,17.39
2019-06-13T10:19:10.264Z,17.42
2019-06-13T10:20:22.568Z,17.40
2019-06-13T10:21:09.686Z,17.39
2019-06-13T10:22:16.917Z,17.42
2019-06-13T10:23:09.950Z,17.45
2019-06-13T10:24:29.391Z,17.42
2019-06-13T10:25:12.964Z,17.42
2019-06-13T10:26:19.415Z,17.45
2019-06-13T10:27:09.231Z,17.51
2019-06-13T10:28:10.659Z,17.51
2019-06-13T10:29:09.209Z,17.42
2019-06-13T10:30:11.237Z,17.43
2019-06-13T10:31:09.191Z,17.40
2019-06-13T10:32:09.164Z,17.51
2019-06-13T10:33:09.654Z,17.53
2019-06-13T10:34:09.134Z,17.47
2019-06-13T10:35:09.146Z,17.51
2019-06-13T10:36:09.767Z,17.53
2019-06-13T10:37:09.110Z,17.55
2019-06-13T10:38:11.423Z,17.57
2019-06-13T10:39:10.324Z,17.55
2019-06-13T10:40:10.665Z,17.58
2019-06-13T10:41:09.930Z,17.65
2019-06-13T10:42:09.950Z,17.70
2019-06-13T10:43:19.704Z,17.68
2019-06-13T10:44:09.699Z,17.70
2019-06-13T10:45:10.107Z,17.74
2019-06-13T10:46:09.751Z,17.76
2019-06-13T10:47:09.144Z,17.74
2019-06-13T10:48:09.363Z,17.71
2019-06-13T10:49:10.222Z,17.70
2019-06-13T10:50:09.431Z,17.70
2019-06-13T10:51:10.615Z,17.68
2019-06-13T10:52:09.978Z,17.71
2019-06-13T10:53:12.930Z,17.74
2019-06-13T10:54:08.906Z,17.71
2019-06-13T10:55:09.584Z,17.70
2019-06-13T10:56:08.890Z,17.77
2019-06-13T10:57:13.805Z,17.71
2019-06-13T10:58:10.071Z,17.73
2019-06-13T10:59:09.846Z,17.66
2019-06-13T11:00:09.691Z,17.70
2019-06-13T11:01:11.079Z,17.77
2019-06-13T11:02:09.625Z,17.79
2019-06-13T11:03:08.802Z,17.81
2019-06-13T11:04:10.772Z,17.86
2019-06-13T11:05:10.577Z,17.92
2019-06-13T11:06:11.195Z,17.91
2019-06-13T11:07:09.573Z,17.98
2019-06-13T11:08:15.730Z,17.91
2019-06-13T11:09:09.561Z,17.98
2019-06-13T11:10:11.821Z,17.92
2019-06-13T11:11:09.315Z,18.01
2019-06-13T11:12:08.722Z,17.98
2019-06-13T11:13:17.443Z,18.09
2019-06-13T11:14:10.175Z,18.09
2019-06-13T11:15:10.295Z,18.11
2019-06-13T11:16:10.308Z,18.16
2019-06-13T11:17:30.888Z,18.16
2019-06-13T11:18:08.687Z,18.19
2019-06-13T11:19:09.997Z,18.21
2019-06-13T11:20:09.460Z,18.23
2019-06-13T11:21:09.509Z,18.20
2019-06-13T11:22:10.555Z,18.21
2019-06-13T11:23:09.821Z,18.31
2019-06-13T11:24:10.075Z,18.31
2019-06-13T11:25:09.778Z,18.29
2019-06-13T11:26:08.571Z,18.38
2019-06-13T11:27:08.536Z,18.32
2019-06-13T11:28:09.816Z,18.38
2019-06-13T11:29:09.830Z,18.26
2019-06-13T11:30:11.633Z,18.47
2019-06-13T11:31:09.616Z,18.36
2019-06-13T11:32:08.496Z,18.42
2019-06-13T11:33:09.181Z,18.47
2019-06-13T11:34:09.339Z,18.51
2019-06-13T11:35:10.293Z,18.51
2019-06-13T11:36:09.151Z,18.66
2019-06-13T11:37:10.557Z,18.66
2019-06-13T11:38:11.073Z,18.65
2019-06-13T11:39:09.813Z,18.78
2019-06-13T11:40:25.041Z,18.86
2019-06-13T11:41:09.473Z,18.96
2019-06-13T11:42:14.330Z,19.05
2019-06-13T11:43:09.361Z,19.16
2019-06-13T11:44:11.372Z,19.40
2019-06-13T11:45:10.786Z,19.53
2019-06-13T11:46:09.913Z,19.64
2019-06-13T11:47:10.140Z,19.78
2019-06-13T11:48:10.517Z,19.94
2019-06-13T11:49:13.443Z,20.05
2019-06-13T11:50:09.675Z,20.10
2019-06-13T11:51:08.307Z,20.15
2019-06-13T11:52:08.324Z,20.25
2019-06-13T11:53:10.993Z,20.26
2019-06-13T11:54:09.826Z,20.38
2019-06-13T11:55:12.195Z,20.48
2019-06-13T11:56:10.052Z,20.56
2019-06-13T11:57:10.441Z,20.69
2019-06-13T11:58:08.274Z,20.81
2019-06-13T11:59:10.186Z,20.85
2019-06-13T12:00:19.923Z,20.81
2019-06-13T12:01:09.446Z,20.93
2019-06-13T12:02:10.182Z,20.88
2019-06-13T12:03:10.436Z,21.13
2019-06-13T12:04:10.281Z,21.08
2019-06-13T12:05:10.196Z,21.22
2019-06-13T12:06:10.180Z,21.30
2019-06-13T12:07:10.043Z,21.33
2019-06-13T12:08:15.288Z,21.46
2019-06-13T12:09:10.219Z,21.42
2019-06-13T12:10:09.725Z,21.51
2019-06-13T12:11:10.376Z,21.56
2019-06-13T12:12:09.989Z,21.67
2019-06-13T12:13:08.112Z,21.85
2019-06-13T12:14:14.450Z,21.90
2019-06-13T12:15:10.719Z,21.93
2019-06-13T12:16:09.474Z,22.01
2019-06-13T12:17:10.741Z,22.15
2019-06-13T12:18:09.507Z,22.27
2019-06-13T12:19:09.922Z,22.27
2019-06-13T12:20:10.151Z,22.17
2019-06-13T12:21:10.419Z,22.26
2019-06-13T12:22:10.248Z,22.39
2019-06-13T12:23:10.260Z,22.44
2019-06-13T12:24:09.832Z,22.26
2019-06-13T12:25:08.015Z,22.39
2019-06-13T12:26:08.001Z,22.63
2019-06-13T12:27:10.603Z,22.81
2019-06-13T12:28:07.971Z,22.79
2019-06-13T12:29:11.213Z,22.69
2019-06-13T12:30:09.006Z,22.75
2019-06-13T12:31:09.565Z,22.63
2019-06-13T12:32:07.977Z,22.79
2019-06-13T12:33:07.992Z,22.91
2019-06-13T12:34:10.333Z,22.96
2019-06-13T12:35:07.914Z,23.01
2019-06-13T12:36:10.784Z,22.96
2019-06-13T12:37:09.293Z,23.11
2019-06-13T12:38:09.312Z,23.07
2019-06-13T12:39:10.296Z,23.14
2019-06-13T12:40:09.418Z,23.15
2019-06-13T12:41:09.595Z,23.26
2019-06-13T12:42:09.756Z,23.38
2019-06-13T12:43:09.307Z,23.45
2019-06-13T12:44:21.982Z,23.44
2019-06-13T12:45:10.863Z,23.50
2019-06-13T12:46:09.709Z,23.54
2019-06-13T12:47:09.518Z,23.60
2019-06-13T12:48:09.273Z,23.69
2019-06-13T12:49:10.143Z,23.79
2019-06-13T12:50:10.555Z,23.75
2019-06-13T12:51:07.782Z,23.77
2019-06-13T12:52:10.055Z,23.79